createdAt,value
2023-03-20T00:00:42.788Z,8.08
2023-03-20T00:03:14.938Z,8.07
2023-03-20T00:08:41.097Z,8.07
2023-03-20T00:11:34.021Z,8.01
2023-03-20T00:14:09.913Z,8.02
2023-03-20T00:16:46.340Z,8.09
2023-03-20T00:19:24.088Z,8.06
2023-03-20T00:21:58.264Z,8.06
2023-03-20T00:24:30.714Z,8.09
2023-03-20T00:27:03.649Z,8.20
2023-03-20T00:29:36.379Z,8.06
2023-03-20T00:32:15.861Z,8.10
2023-03-20T00:34:47.728Z,8.12
2023-03-20T00:37:20.541Z,8.19
2023-03-20T00:39:52.742Z,8.19
2023-03-20T00:42:26.358Z,8.17
2023-03-20T00:44:59.591Z,8.22
2023-03-20T00:47:36.454Z,8.17
2023-03-20T00:50:27.445Z,8.29
2023-03-20T00:53:01.034Z,8.20
2023-03-20T00:55:33.490Z,8.20
2023-03-20T00:58:07.035Z,8.17
2023-03-20T01:00:42.829Z,8.16
2023-03-20T01:03:25.687Z,8.15
2023-03-20T01:05:57.647Z,8.21
2023-03-20T01:08:30.369Z,8.16
2023-03-20T01:11:02.785Z,8.12
2023-03-20T01:13:40.712Z,8.12
2023-03-20T01:16:23.277Z,8.25
2023-03-20T01:18:57.165Z,8.30
2023-03-20T01:21:29.318Z,8.34
2023-03-20T01:24:02.272Z,8.29
2023-03-20T01:26:43.337Z,8.28
2023-03-20T01:29:28.009Z,8.37
2023-03-20T01:31:59.968Z,8.39
2023-03-20T01:34:33.062Z,8.25
2023-03-20T01:37:13.754Z,8.16
2023-03-20T01:39:46.970Z,8.27
2023-03-20T01:42:38.532Z,8.22
2023-03-20T01:45:23.391Z,8.16
2023-03-20T01:47:56.070Z,8.11
2023-03-20T01:50:34.792Z,8.11
2023-03-20T01:53:21.998Z,8.13
2023-03-20T01:56:01.054Z,8.06
2023-03-20T01:58:49.367Z,8.13
2023-03-20T02:01:21.585Z,8.18
2023-03-20T02:03:57.766Z,8.22
2023-03-20T02:07:00.657Z,8.21
2023-03-20T02:09:56.013Z,8.19
2023-03-20T02:12:39.997Z,8.08
2023-03-20T02:15:16.863Z,8.04
2023-03-20T02:18:04.311Z,8.07
2023-03-20T02:21:12.939Z,8.16
2023-03-20T02:24:30.830Z,8.26
2023-03-20T02:27:07.772Z,8.33
2023-03-20T02:29:57.965Z,8.44
2023-03-20T02:33:20.027Z,8.49
2023-03-20T02:36:13.434Z,8.34
2023-03-20T02:39:17.220Z,8.34
2023-03-20T02:42:35.229Z,8.43
2023-03-20T02:45:47.951Z,8.43
2023-03-20T02:48:57.648Z,8.51
2023-03-20T02:51:56.884Z,8.47
2023-03-20T02:54:49.970Z,8.62
2023-03-20T02:57:38.010Z,8.57
2023-03-20T03:00:28.667Z,8.63
2023-03-20T03:03:17.897Z,8.71
2023-03-20T03:06:10.993Z,8.57
2023-03-20T03:08:48.381Z,8.39
2023-03-20T03:11:21.487Z,8.40
2023-03-20T03:13:58.805Z,8.45
2023-03-20T03:16:36.420Z,8.44
2023-03-20T03:19:23.133Z,8.64
2023-03-20T03:21:56.032Z,8.43
2023-03-20T03:24:41.266Z,8.63
2023-03-20T03:27:24.118Z,8.60
2023-03-20T03:30:08.139Z,8.56
2023-03-20T03:32:50.263Z,8.44
2023-03-20T03:35:24.570Z,8.53
2023-03-20T03:38:27.433Z,8.44
2023-03-20T03:41:26.791Z,8.56
2023-03-20T03:44:11.813Z,8.72
2023-03-20T03:46:58.865Z,8.78
2023-03-20T03:49:38.884Z,8.85
2023-03-20T03:52:16.860Z,8.84
2023-03-20T03:55:04.871Z,8.84
2023-03-20T03:57:50.930Z,8.62
2023-03-20T04:00:27.798Z,8.48
2023-03-20T04:03:00.275Z,8.56
2023-03-20T04:05:35.523Z,8.62
2023-03-20T04:08:09.332Z,8.57
2023-03-20T04:10:41.429Z,8.47
2023-03-20T04:13:16.784Z,8.51
2023-03-20T04:15:49.598Z,8.47
2023-03-20T04:18:22.178Z,8.50
2023-03-20T04:20:55.154Z,8.52
2023-03-20T04:23:27.169Z,8.49
2023-03-20T04:26:01.755Z,8.67
2023-03-20T04:28:35.356Z,8.60
2023-03-20T04:31:28.565Z,8.61
2023-03-20T04:34:20.020Z,8.64
2023-03-20T04:37:30.523Z,9.51
2023-03-20T04:40:11.984Z,8.71
2023-03-20T04:42:47.217Z,8.61
2023-03-20T04:45:20.863Z,8.54
2023-03-20T04:47:53.212Z,8.40
2023-03-20T04:50:29.168Z,8.45
2023-03-20T04:53:01.668Z,8.48
2023-03-20T04:55:35.490Z,8.52
2023-03-20T04:58:07.741Z,8.55
2023-03-20T05:00:40.890Z,8.54
2023-03-20T05:03:13.320Z,8.52
2023-03-20T05:05:46.516Z,8.56
2023-03-20T05:08:19.151Z,8.45
2023-03-20T05:10:53.145Z,8.43
2023-03-20T05:13:44.316Z,8.37
2023-03-20T05:16:31.089Z,8.45
2023-03-20T05:19:18.150Z,8.51
2023-03-20T05:22:10.307Z,8.50
2023-03-20T05:25:02.372Z,8.55
2023-03-20T05:28:07.067Z,8.49
2023-03-20T05:30:56.566Z,8.51
2023-03-20T05:33:59.639Z,8.57
2023-03-20T05:36:43.249Z,8.66
2023-03-20T05:39:33.370Z,8.74
2023-03-20T05:42:32.866Z,8.85
2023-03-20T05:45:08.496Z,8.83
2023-03-20T05:47:47.270Z,8.65
2023-03-20T05:50:50.230Z,8.65
2023-03-20T05:53:41.583Z,8.75
2023-03-20T05:56:50.115Z,8.87
2023-03-20T05:59:28.488Z,8.91
2023-03-20T06:05:35.193Z,8.65
2023-03-20T06:08:31.073Z,8.63
2023-03-20T06:11:05.163Z,8.60
2023-03-20T06:13:41.741Z,8.64
2023-03-20T06:16:13.813Z,8.73
2023-03-20T06:18:46.933Z,8.65
2023-03-20T06:21:19.469Z,8.67
2023-03-20T06:24:11.597Z,8.66
2023-03-20T06:26:44.861Z,8.82
2023-03-20T06:29:18.645Z,8.69
2023-03-20T06:31:53.038Z,8.69
2023-03-20T06:34:32.344Z,8.78
2023-03-20T06:37:05.088Z,8.98
2023-03-20T06:39:37.538Z,9.01
2023-03-20T06:42:15.090Z,9.04
2023-03-20T06:44:50.581Z,9.15
2023-03-20T06:47:44.258Z,9.40
2023-03-20T06:50:18.717Z,9.29
2023-03-20T06:52:52.310Z,9.10
2023-03-20T06:55:50.487Z,9.12
2023-03-20T06:58:22.983Z,9.20
2023-03-20T07:00:57.795Z,9.23
2023-03-20T07:03:30.158Z,9.43
2023-03-20T07:06:05.423Z,9.46
2023-03-20T07:08:37.951Z,9.60
2023-03-20T07:11:11.818Z,11.69
2023-03-20T07:13:44.053Z,13.24
2023-03-20T07:16:30.265Z,11.43
2023-03-20T07:19:04.556Z,10.69
2023-03-20T07:21:40.364Z,10.48
2023-03-20T07:24:13.179Z,10.22
2023-03-20T07:26:48.632Z,10.21
2023-03-20T07:29:20.594Z,10.11
2023-03-20T07:34:55.525Z,9.98
2023-03-20T07:37:28.302Z,10.00
2023-03-20T07:40:05.984Z,9.91
2023-03-20T07:42:40.506Z,9.96
2023-03-20T07:48:12.689Z,10.15
2023-03-20T07:51:08.208Z,10.20
2023-03-20T07:53:40.223Z,10.25
2023-03-20T07:56:18.235Z,10.32
2023-03-20T07:58:50.581Z,10.44
2023-03-20T08:01:46.905Z,10.66
2023-03-20T08:04:23.363Z,10.83
2023-03-20T08:06:55.377Z,10.83
2023-03-20T08:09:28.740Z,11.02
2023-03-20T08:12:01.284Z,11.12
2023-03-20T08:14:36.400Z,11.21
2023-03-20T08:17:15.439Z,10.54
2023-03-20T08:23:03.210Z,10.20
2023-03-20T08:25:36.526Z,10.46
2023-03-20T08:28:09.447Z,10.70
2023-03-20T08:30:43.642Z,10.60
2023-03-20T08:33:37.022Z,10.93
2023-03-20T08:36:13.792Z,11.17
2023-03-20T08:38:48.264Z,10.90
2023-03-20T08:41:21.827Z,10.99
2023-03-20T08:44:14.473Z,10.76
2023-03-20T08:46:48.366Z,11.06
2023-03-20T08:49:23.666Z,11.72
2023-03-20T08:51:56.654Z,11.55
2023-03-20T08:54:29.086Z,11.51
2023-03-20T08:57:01.448Z,12.18
2023-03-20T08:59:34.023Z,12.95
2023-03-20T09:02:08.251Z,12.67
2023-03-20T09:04:41.857Z,12.22
2023-03-20T09:07:16.096Z,13.41
2023-03-20T09:09:50.155Z,15.07
2023-03-20T09:12:23.890Z,16.60
2023-03-20T09:14:55.806Z,17.30
2023-03-20T09:17:29.942Z,18.54
2023-03-20T09:20:02.084Z,20.38
2023-03-20T09:22:36.404Z,21.19
2023-03-20T09:25:08.942Z,20.38
2023-03-20T09:27:41.973Z,18.14
2023-03-20T09:30:35.888Z,16.98
2023-03-20T09:33:09.128Z,18.79
2023-03-20T09:35:43.656Z,19.93
2023-03-20T09:38:17.530Z,16.77
2023-03-20T09:41:05.211Z,14.60
2023-03-20T09:44:28.346Z,13.99
2023-03-20T09:47:20.363Z,13.69
2023-03-20T09:53:19.085Z,13.56
2023-03-20T09:55:53.950Z,13.90
2023-03-20T09:58:28.291Z,13.82
2023-03-20T10:01:04.888Z,13.64
2023-03-20T10:04:09.019Z,13.25
2023-03-20T10:06:43.010Z,13.56
2023-03-20T10:09:28.100Z,13.30
2023-03-20T10:13:12.224Z,13.38
2023-03-20T10:16:16.742Z,13.27
2023-03-20T10:19:40.134Z,13.18
2023-03-20T10:22:27.458Z,13.52
2023-03-20T10:28:48.419Z,14.03
2023-03-20T10:32:05.976Z,13.85
2023-03-20T10:35:08.932Z,13.91
2023-03-20T10:37:49.872Z,13.89
2023-03-20T10:40:36.667Z,13.99
2023-03-20T10:43:19.128Z,13.91
2023-03-20T10:46:45.571Z,13.69
2023-03-20T10:49:51.617Z,13.64
2023-03-20T10:52:29.745Z,13.66
2023-03-20T10:55:10.439Z,14.17
2023-03-20T10:57:51.594Z,14.95
2023-03-20T11:00:27.055Z,14.89
2023-03-20T11:02:59.443Z,14.37
2023-03-20T11:05:36.940Z,14.16
2023-03-20T11:08:13.886Z,13.85
2023-03-20T11:10:46.308Z,13.70
2023-03-20T11:13:34.805Z,13.83
2023-03-20T11:16:31.918Z,13.98
2023-03-20T11:19:10.460Z,14.15
2023-03-20T11:21:50.688Z,14.70
2023-03-20T11:24:45.009Z,14.76
2023-03-20T11:27:26.344Z,14.49
2023-03-20T11:30:01.379Z,14.68
2023-03-20T11:32:41.020Z,14.92
2023-03-20T11:35:18.955Z,15.45
2023-03-20T11:37:55.072Z,15.04
2023-03-20T11:40:32.456Z,14.80
2023-03-20T11:43:18.936Z,15.01
2023-03-20T11:45:57.100Z,15.36
2023-03-20T11:48:47.874Z,14.77
2023-03-20T11:51:21.755Z,15.10
2023-03-20T11:54:07.499Z,15.01
2023-03-20T11:56:54.333Z,15.34
2023-03-20T11:59:35.440Z,15.00
2023-03-20T12:02:22.783Z,14.86
2023-03-20T12:05:00.495Z,14.64
2023-03-20T12:07:38.560Z,14.41
2023-03-20T12:10:15.185Z,14.68
2023-03-20T12:13:29.184Z,14.71
2023-03-20T12:16:06.393Z,15.02
2023-03-20T12:18:49.501Z,15.24
2023-03-20T12:21:43.482Z,15.05
2023-03-20T12:24:46.852Z,14.75
2023-03-20T12:27:31.490Z,14.82
2023-03-20T12:30:10.088Z,14.94
2023-03-20T12:32:45.209Z,14.73
2023-03-20T12:35:32.852Z,14.39
2023-03-20T12:38:30.291Z,14.14
2023-03-20T12:41:16.172Z,14.72
2023-03-20T12:44:08.659Z,14.69
2023-03-20T12:46:51.824Z,15.18
2023-03-20T12:49:48.263Z,15.42
2023-03-20T12:53:01.594Z,15.37
2023-03-20T12:55:54.703Z,16.33
2023-03-20T12:58:52.865Z,16.51
2023-03-20T13:02:16.308Z,16.21
2023-03-20T13:05:12.646Z,16.08
2023-03-20T13:08:12.037Z,15.87
2023-03-20T13:11:33.754Z,15.43
2023-03-20T13:14:57.195Z,15.68
2023-03-20T13:17:39.415Z,16.11
2023-03-20T13:20:25.558Z,15.58
2023-03-20T13:23:12.418Z,15.60
2023-03-20T13:26:20.094Z,16.60
2023-03-20T13:29:34.510Z,16.14
2023-03-20T13:32:41.515Z,16.01
2023-03-20T13:35:23.696Z,15.94
2023-03-20T13:38:01.582Z,15.26
2023-03-20T13:40:44.239Z,15.11
2023-03-20T13:43:46.694Z,14.54
2023-03-20T13:46:25.543Z,14.56
2023-03-20T13:49:04.805Z,15.00
2023-03-20T13:52:07.725Z,14.77
2023-03-20T13:54:59.256Z,14.79
2023-03-20T13:57:52.637Z,15.18
2023-03-20T14:00:50.401Z,15.38
2023-03-20T14:03:28.585Z,15.12
2023-03-20T14:06:01.165Z,15.06
2023-03-20T14:08:38.123Z,15.02
2023-03-20T14:11:35.793Z,14.84
2023-03-20T14:14:20.050Z,14.70
2023-03-20T14:17:09.068Z,14.62
2023-03-20T14:19:41.714Z,14.60
2023-03-20T14:22:21.587Z,14.78
2023-03-20T14:25:05.185Z,15.14
2023-03-20T14:28:13.344Z,15.47
2023-03-20T14:30:52.613Z,15.22
2023-03-20T14:33:27.546Z,15.28
2023-03-20T14:36:21.222Z,15.37
2023-03-20T14:39:19.776Z,15.24
2023-03-20T14:42:51.974Z,15.34
2023-03-20T14:45:45.657Z,15.30
2023-03-20T14:48:43.119Z,15.15
2023-03-20T14:51:41.256Z,15.09
2023-03-20T14:54:31.424Z,15.02
2023-03-20T14:57:19.937Z,14.90
2023-03-20T14:59:52.659Z,14.98
2023-03-20T15:02:35.273Z,15.00
2023-03-20T15:05:19.980Z,15.07
2023-03-20T15:07:52.705Z,15.30
2023-03-20T15:10:28.950Z,15.40
2023-03-20T15:13:04.637Z,15.26
2023-03-20T15:15:37.651Z,15.48
2023-03-20T15:18:14.294Z,15.37
2023-03-20T15:20:47.324Z,15.30
2023-03-20T15:23:19.872Z,15.19
2023-03-20T15:25:52.893Z,15.11
2023-03-20T15:28:27.109Z,15.10
2023-03-20T15:31:00.045Z,14.95
2023-03-20T15:33:41.893Z,15.25
2023-03-20T15:36:25.567Z,15.18
2023-03-20T15:39:29.209Z,15.34
2023-03-20T15:42:05.792Z,15.22
2023-03-20T15:44:40.330Z,15.31
2023-03-20T15:47:22.894Z,15.20
2023-03-20T15:50:04.790Z,15.09
2023-03-20T15:52:42.724Z,15.12
2023-03-20T15:55:20.318Z,15.09
2023-03-20T15:57:56.577Z,15.21
2023-03-20T16:00:39.353Z,15.41
2023-03-20T16:03:19.109Z,15.35
2023-03-20T16:05:52.553Z,15.33
2023-03-20T16:08:33.414Z,15.19
2023-03-20T16:11:17.884Z,15.31
2023-03-20T16:13:51.519Z,15.30
2023-03-20T16:16:25.268Z,15.46
2023-03-20T16:18:59.375Z,15.28
2023-03-20T16:21:37.632Z,15.18
2023-03-20T16:24:17.021Z,15.11
2023-03-20T16:26:53.162Z,14.97
2023-03-20T16:29:28.037Z,14.85
2023-03-20T16:32:06.280Z,14.56
2023-03-20T16:34:39.659Z,14.46
2023-03-20T16:37:38.246Z,14.54
2023-03-20T16:40:33.145Z,14.27
2023-03-20T16:43:32.164Z,14.19
2023-03-20T16:46:07.384Z,14.44
2023-03-20T16:48:39.849Z,15.24
2023-03-20T16:51:29.754Z,14.64
2023-03-20T16:54:01.786Z,14.05
2023-03-20T16:56:38.355Z,13.85
2023-03-20T16:59:17.537Z,13.64
2023-03-20T17:01:53.280Z,13.43
2023-03-20T17:04:35.464Z,13.39
2023-03-20T17:07:19.415Z,13.39
2023-03-20T17:10:18.830Z,13.31
2023-03-20T17:12:54.498Z,13.32
2023-03-20T17:15:27.299Z,13.21
2023-03-20T17:17:59.188Z,13.32
2023-03-20T17:20:32.096Z,13.30
2023-03-20T17:23:05.095Z,13.20
2023-03-20T17:25:37.814Z,13.21
2023-03-20T17:28:24.119Z,13.17
2023-03-20T17:30:56.426Z,13.07
2023-03-20T17:33:29.791Z,12.95
2023-03-20T17:36:02.173Z,12.98
2023-03-20T17:38:34.774Z,12.87
2023-03-20T17:41:17.858Z,12.93
2023-03-20T17:43:51.919Z,12.72
2023-03-20T17:46:30.344Z,12.67
2023-03-20T17:49:13.359Z,12.51
2023-03-20T17:51:45.852Z,12.39
2023-03-20T17:54:18.801Z,12.28
2023-03-20T17:56:50.696Z,12.23
2023-03-20T17:59:25.130Z,12.31
2023-03-20T18:01:57.350Z,12.43
2023-03-20T18:04:29.930Z,12.34
2023-03-20T18:07:02.727Z,12.19
2023-03-20T18:09:35.328Z,12.00
2023-03-20T18:12:12.586Z,11.97
2023-03-20T18:14:46.941Z,11.83
2023-03-20T18:17:18.952Z,11.85
2023-03-20T18:19:51.950Z,11.63
2023-03-20T18:22:23.922Z,11.38
2023-03-20T18:24:56.936Z,11.37
2023-03-20T18:27:29.239Z,11.29
2023-03-20T18:30:01.850Z,11.22
2023-03-20T18:32:33.833Z,11.15
2023-03-20T18:35:06.919Z,11.05
2023-03-20T18:37:41.249Z,11.01
2023-03-20T18:40:27.096Z,10.91
2023-03-20T18:42:59.600Z,10.85
2023-03-20T18:45:32.681Z,10.85
2023-03-20T18:48:04.634Z,10.76
2023-03-20T18:50:43.425Z,10.69
2023-03-20T18:53:15.560Z,10.60
2023-03-20T18:55:48.517Z,10.55
2023-03-20T18:58:27.866Z,10.53
2023-03-20T19:01:00.582Z,10.55
2023-03-20T19:03:39.569Z,10.64
2023-03-20T19:06:18.534Z,10.63
2023-03-20T19:08:52.361Z,10.67
2023-03-20T19:11:24.497Z,10.57
2023-03-20T19:13:57.139Z,10.50
2023-03-20T19:16:31.887Z,10.46
2023-03-20T19:19:06.947Z,10.48
2023-03-20T19:21:38.859Z,10.67
2023-03-20T19:24:12.102Z,13.13
2023-03-20T19:26:44.008Z,14.04
2023-03-20T19:29:18.310Z,12.55
2023-03-20T19:31:50.438Z,11.51
2023-03-20T19:35:00.774Z,10.86
2023-03-20T19:37:15.225Z,10.56
2023-03-20T19:39:47.808Z,10.26
2023-03-20T19:42:47.493Z,10.16
2023-03-20T19:45:12.271Z,10.06
2023-03-20T19:47:44.735Z,9.93
2023-03-20T19:50:31.665Z,9.79
2023-03-20T19:53:08.163Z,9.74
2023-03-20T19:55:40.933Z,9.72
2023-03-20T19:58:13.135Z,9.63
2023-03-20T20:00:58.894Z,9.60
2023-03-20T20:03:32.804Z,9.54
2023-03-20T20:06:05.002Z,9.56
2023-03-20T20:08:48.081Z,9.51
2023-03-20T20:11:21.904Z,9.55
2023-03-20T20:14:13.406Z,9.58
2023-03-20T20:16:48.793Z,9.55
2023-03-20T20:19:21.467Z,9.47
2023-03-20T20:24:45.966Z,9.22
2023-03-20T20:27:18.989Z,9.05
2023-03-20T20:29:53.342Z,9.13
2023-03-20T20:32:27.919Z,9.22
2023-03-20T20:40:49.801Z,8.99
2023-03-20T20:43:39.248Z,9.13
2023-03-20T20:46:14.701Z,9.16
2023-03-20T20:48:46.589Z,8.89
2023-03-20T20:51:19.636Z,9.19
2023-03-20T20:53:51.657Z,9.01
2023-03-20T20:56:24.208Z,8.97
2023-03-20T20:58:56.136Z,8.95
2023-03-20T21:01:28.768Z,8.84
2023-03-20T21:04:01.275Z,8.81
2023-03-20T21:07:05.568Z,8.89
2023-03-20T21:09:27.451Z,8.82
2023-03-20T21:12:00.951Z,8.77
2023-03-20T21:14:33.718Z,8.68
2023-03-20T21:17:06.463Z,8.69
2023-03-20T21:19:43.339Z,8.51
2023-03-20T21:22:16.936Z,8.45
2023-03-20T21:24:53.780Z,8.51
2023-03-20T21:27:30.112Z,8.48
2023-03-20T21:30:04.287Z,8.62
2023-03-20T21:32:36.984Z,8.57
2023-03-20T21:35:10.011Z,8.56
2023-03-20T21:40:34.493Z,8.91
2023-03-20T21:43:06.619Z,8.92
2023-03-20T21:46:20.923Z,9.09
2023-03-20T21:58:09.843Z,8.90
2023-03-20T22:02:58.269Z,8.81
2023-03-20T22:09:38.731Z,8.79
2023-03-20T22:15:03.941Z,8.76
2023-03-20T22:17:52.803Z,8.84
2023-03-20T22:35:31.425Z,8.38
2023-03-20T22:38:34.481Z,8.43
2023-03-20T22:44:35.410Z,8.15
2023-03-20T22:46:46.646Z,8.16
2023-03-20T22:49:10.977Z,8.13
2023-03-20T22:51:57.424Z,8.05
2023-03-20T22:54:35.931Z,8.12
2023-03-20T22:57:08.564Z,8.14
2023-03-20T22:59:40.601Z,8.08
2023-03-20T23:02:13.224Z,8.06
2023-03-20T23:04:45.377Z,8.03
2023-03-20T23:07:17.980Z,7.90
2023-03-20T23:09:50.009Z,8.01
2023-03-20T23:12:22.589Z,7.97
2023-03-20T23:14:55.491Z,7.99
2023-03-20T23:17:28.073Z,8.03
2023-03-20T23:20:10.770Z,7.82
2023-03-20T23:22:44.258Z,7.80
2023-03-20T23:25:27.436Z,7.88
2023-03-20T23:28:03.945Z,7.97
2023-03-20T23:30:45.345Z,8.06
2023-03-20T23:33:20.572Z,7.94
2023-03-20T23:36:01.268Z,7.88
2023-03-20T23:38:41.792Z,7.99
2023-03-20T23:41:14.200Z,7.88
2023-03-20T23:43:46.830Z,7.66
2023-03-20T23:46:18.862Z,7.79
2023-03-20T23:48:51.862Z,7.77
2023-03-20T23:51:23.826Z,7.77
2023-03-20T23:53:56.433Z,7.80
2023-03-20T23:56:28.532Z,7.77
2023-03-20T23:59:14.684Z,7.77
